Etusivu
METAR-TAF:

METAR-TAF

Lentoasemat :

Linaten lentoasema

Milano, Italia

Leveyspiiri: 45-26N, Pituuspiiri: 009-17E, korkeus merenpinnasta: 107 m

Tämänhetkinen sää

Tämä raportti tehtiin 47 minuuttia sitten, kello 03.20 UTC
Tuuli 2 kn pohjoisesta/koillisesta
Lämpötila 5°C
Kosteus 87%
Ilmanpaine 1021 hPa
Näkyvyys 10 km tai enemmän
Muutamia pilviä 3000 ft:n korkeudessa

METAR: LIML 190320Z 02002KT 9999 FEW030 05/03 Q1021 NOSIG

Aika: 05:07 (04:07 UTC)

Sääennuste

Tämä raportti tehtiin 5 tuntia ja 7 minuuttia sitten, kello 23.00 UTC
Ennuste voimassa 19. päivästä klo 00 UTC - 19. päivään klo 24 UTC
Tuuli 5 kn eri suunnista
Näkyvyys 10 km tai enemmän
ei pilviä alle 1500 m:ssä eikä cumulonimbus-pilviä

TAF: LIML 182300Z 1900/1924 VRB05KT CAVOK

Säähavainnot ja -ennusteet yli 4000 lentoasemalta (METAR- ja TAF-raportit).

Käytössä olevat sääasemat on merkitty karttaan keltaisilla ja punaisilla pisteillä.

Aseta hiiri pisteen päälle nähdäksesi sääaseman nimen.

Klikkaa sitten nähdäksesi säähavainnot ja -ennusteet.

Kartan vaihtaminen: klikkaa mustalla rastilla varustettuja vihreitä pisteitä, niin voit zoomata sisään; viivalla varustettua vihreää pistettä, niin voit zoomata ulos tai vihreitä nuolia, niin pääset viereisille kartoille.


METAR-TAF: